sensor_id;sensor_type;location;lat;lon;timestamp;P1;durP1;ratioP1;P2;durP2;ratioP2
5776;SDS011;2914;42.668;23.346;2023-02-26T00:01:34;16.90;;;5.37;;
5776;SDS011;2914;42.668;23.346;2023-02-26T00:04:04;17.23;;;5.40;;
5776;SDS011;2914;42.668;23.346;2023-02-26T00:06:36;11.43;;;5.23;;
5776;SDS011;2914;42.668;23.346;2023-02-26T00:09:09;17.07;;;5.60;;
5776;SDS011;2914;42.668;23.346;2023-02-26T00:11:39;16.13;;;5.43;;
5776;SDS011;2914;42.668;23.346;2023-02-26T00:14:09;11.13;;;5.70;;
5776;SDS011;2914;42.668;23.346;2023-02-26T00:16:41;22.83;;;5.50;;
5776;SDS011;2914;42.668;23.346;2023-02-26T00:19:14;11.70;;;5.33;;
5776;SDS011;2914;42.668;23.346;2023-02-26T00:21:46;17.17;;;5.83;;
5776;SDS011;2914;42.668;23.346;2023-02-26T00:24:16;12.60;;;5.67;;
5776;SDS011;2914;42.668;23.346;2023-02-26T00:26:45;28.93;;;6.13;;
5776;SDS011;2914;42.668;23.346;2023-02-26T00:29:15;14.47;;;7.87;;
5776;SDS011;2914;42.668;23.346;2023-02-26T00:31:47;16.43;;;5.50;;
5776;SDS011;2914;42.668;23.346;2023-02-26T00:34:19;9.77;;;5.90;;
5776;SDS011;2914;42.668;23.346;2023-02-26T00:36:51;18.93;;;5.10;;
5776;SDS011;2914;42.668;23.346;2023-02-26T00:39:28;21.47;;;5.77;;
5776;SDS011;2914;42.668;23.346;2023-02-26T00:42:02;15.80;;;5.30;;
5776;SDS011;2914;42.668;23.346;2023-02-26T00:44:33;16.57;;;5.77;;
5776;SDS011;2914;42.668;23.346;2023-02-26T00:47:05;14.80;;;4.83;;
5776;SDS011;2914;42.668;23.346;2023-02-26T00:49:42;18.87;;;5.57;;
5776;SDS011;2914;42.668;23.346;2023-02-26T00:52:17;7.60;;;4.97;;
5776;SDS011;2914;42.668;23.346;2023-02-26T00:54:48;11.27;;;5.00;;
5776;SDS011;2914;42.668;23.346;2023-02-26T00:57:17;17.70;;;4.70;;
5776;SDS011;2914;42.668;23.346;2023-02-26T00:59:51;13.23;;;5.40;;
5776;SDS011;2914;42.668;23.346;2023-02-26T01:02:21;27.10;;;4.90;;
5776;SDS011;2914;42.668;23.346;2023-02-26T01:04:51;16.80;;;5.20;;
5776;SDS011;2914;42.668;23.346;2023-02-26T01:07:22;15.47;;;4.33;;
5776;SDS011;2914;42.668;23.346;2023-02-26T01:09:53;8.50;;;5.00;;
5776;SDS011;2914;42.668;23.346;2023-02-26T01:12:25;22.00;;;5.50;;
5776;SDS011;2914;42.668;23.346;2023-02-26T01:14:56;15.43;;;5.00;;
5776;SDS011;2914;42.668;23.346;2023-02-26T01:17:27;11.33;;;5.30;;
5776;SDS011;2914;42.668;23.346;2023-02-26T01:20:00;14.57;;;5.03;;
5776;SDS011;2914;42.668;23.346;2023-02-26T01:22:34;23.57;;;5.40;;
5776;SDS011;2914;42.668;23.346;2023-02-26T01:25:13;12.57;;;4.93;;
5776;SDS011;2914;42.668;23.346;2023-02-26T01:27:46;8.83;;;4.80;;
5776;SDS011;2914;42.668;23.346;2023-02-26T01:30:19;9.00;;;3.90;;
5776;SDS011;2914;42.668;23.346;2023-02-26T01:33:07;14.10;;;4.70;;
5776;SDS011;2914;42.668;23.346;2023-02-26T01:35:40;46.77;;;5.53;;
5776;SDS011;2914;42.668;23.346;2023-02-26T01:41:04;12.70;;;4.87;;
5776;SDS011;2914;42.668;23.346;2023-02-26T01:43:58;16.90;;;5.50;;
5776;SDS011;2914;42.668;23.346;2023-02-26T01:46:33;13.23;;;4.60;;
5776;SDS011;2914;42.668;23.346;2023-02-26T01:49:07;12.50;;;4.57;;
5776;SDS011;2914;42.668;23.346;2023-02-26T01:51:47;20.83;;;5.50;;
5776;SDS011;2914;42.668;23.346;2023-02-26T01:54:18;11.30;;;4.40;;
5776;SDS011;2914;42.668;23.346;2023-02-26T01:56:51;18.23;;;5.63;;
5776;SDS011;2914;42.668;23.346;2023-02-26T01:59:24;12.23;;;3.80;;
5776;SDS011;2914;42.668;23.346;2023-02-26T02:01:53;26.73;;;4.77;;
5776;SDS011;2914;42.668;23.346;2023-02-26T02:04:25;24.70;;;5.03;;
5776;SDS011;2914;42.668;23.346;2023-02-26T02:06:54;18.33;;;4.67;;
5776;SDS011;2914;42.668;23.346;2023-02-26T02:09:24;11.73;;;3.90;;
5776;SDS011;2914;42.668;23.346;2023-02-26T02:12:04;13.30;;;4.07;;
5776;SDS011;2914;42.668;23.346;2023-02-26T02:14:40;15.30;;;4.33;;
5776;SDS011;2914;42.668;23.346;2023-02-26T02:17:13;22.63;;;5.60;;
5776;SDS011;2914;42.668;23.346;2023-02-26T02:19:57;13.93;;;5.40;;
5776;SDS011;2914;42.668;23.346;2023-02-26T02:22:45;19.47;;;5.63;;
5776;SDS011;2914;42.668;23.346;2023-02-26T02:25:34;9.10;;;4.17;;
5776;SDS011;2914;42.668;23.346;2023-02-26T02:28:22;14.53;;;4.33;;
5776;SDS011;2914;42.668;23.346;2023-02-26T02:31:07;13.70;;;4.73;;
5776;SDS011;2914;42.668;23.346;2023-02-26T02:33:40;12.07;;;4.13;;
5776;SDS011;2914;42.668;23.346;2023-02-26T02:36:14;9.43;;;4.60;;
5776;SDS011;2914;42.668;23.346;2023-02-26T02:38:46;11.03;;;4.60;;
5776;SDS011;2914;42.668;23.346;2023-02-26T02:41:18;21.30;;;4.60;;
5776;SDS011;2914;42.668;23.346;2023-02-26T02:43:50;7.90;;;5.13;;
5776;SDS011;2914;42.668;23.346;2023-02-26T02:46:22;19.40;;;4.57;;
5776;SDS011;2914;42.668;23.346;2023-02-26T02:48:55;22.90;;;4.10;;
5776;SDS011;2914;42.668;23.346;2023-02-26T02:51:27;20.33;;;7.07;;
5776;SDS011;2914;42.668;23.346;2023-02-26T02:54:00;12.63;;;5.07;;
5776;SDS011;2914;42.668;23.346;2023-02-26T02:56:33;9.57;;;4.37;;
5776;SDS011;2914;42.668;23.346;2023-02-26T02:59:05;12.83;;;5.07;;
5776;SDS011;2914;42.668;23.346;2023-02-26T03:01:39;16.30;;;5.57;;
5776;SDS011;2914;42.668;23.346;2023-02-26T03:04:12;13.60;;;4.10;;
5776;SDS011;2914;42.668;23.346;2023-02-26T03:06:43;23.80;;;4.77;;
5776;SDS011;2914;42.668;23.346;2023-02-26T03:09:14;11.47;;;3.00;;
5776;SDS011;2914;42.668;23.346;2023-02-26T03:11:45;13.03;;;4.10;;
5776;SDS011;2914;42.668;23.346;2023-02-26T03:14:15;18.13;;;3.93;;
5776;SDS011;2914;42.668;23.346;2023-02-26T03:17:00;18.47;;;3.83;;
5776;SDS011;2914;42.668;23.346;2023-02-26T03:19:37;7.27;;;4.43;;
5776;SDS011;2914;42.668;23.346;2023-02-26T03:22:10;14.07;;;4.20;;
5776;SDS011;2914;42.668;23.346;2023-02-26T03:24:44;11.53;;;4.30;;
5776;SDS011;2914;42.668;23.346;2023-02-26T03:27:15;19.70;;;4.00;;
5776;SDS011;2914;42.668;23.346;2023-02-26T03:29:49;15.50;;;5.47;;
5776;SDS011;2914;42.668;23.346;2023-02-26T03:32:40;9.20;;;3.10;;
5776;SDS011;2914;42.668;23.346;2023-02-26T03:35:12;11.30;;;3.37;;
5776;SDS011;2914;42.668;23.346;2023-02-26T03:37:44;20.20;;;5.03;;
5776;SDS011;2914;42.668;23.346;2023-02-26T03:40:20;12.47;;;4.37;;
5776;SDS011;2914;42.668;23.346;2023-02-26T03:42:51;7.33;;;3.97;;
5776;SDS011;2914;42.668;23.346;2023-02-26T03:45:24;8.70;;;3.40;;
5776;SDS011;2914;42.668;23.346;2023-02-26T03:47:56;19.70;;;4.00;;
5776;SDS011;2914;42.668;23.346;2023-02-26T03:50:28;10.07;;;3.93;;
5776;SDS011;2914;42.668;23.346;2023-02-26T03:53:00;17.23;;;4.27;;
5776;SDS011;2914;42.668;23.346;2023-02-26T03:55:34;19.47;;;5.60;;
5776;SDS011;2914;42.668;23.346;2023-02-26T03:58:07;15.43;;;3.90;;
5776;SDS011;2914;42.668;23.346;2023-02-26T04:00:37;25.63;;;4.40;;
5776;SDS011;2914;42.668;23.346;2023-02-26T04:03:09;10.13;;;3.20;;
5776;SDS011;2914;42.668;23.346;2023-02-26T04:05:42;9.00;;;3.70;;
5776;SDS011;2914;42.668;23.346;2023-02-26T04:08:13;17.43;;;4.60;;
5776;SDS011;2914;42.668;23.346;2023-02-26T04:10:43;22.87;;;4.93;;
5776;SDS011;2914;42.668;23.346;2023-02-26T04:13:15;14.20;;;4.07;;
5776;SDS011;2914;42.668;23.346;2023-02-26T04:15:45;16.83;;;4.60;;
5776;SDS011;2914;42.668;23.346;2023-02-26T04:18:14;35.03;;;4.20;;
5776;SDS011;2914;42.668;23.346;2023-02-26T04:20:44;33.60;;;3.80;;
5776;SDS011;2914;42.668;23.346;2023-02-26T04:23:13;9.30;;;4.20;;
5776;SDS011;2914;42.668;23.346;2023-02-26T04:25:42;27.17;;;4.27;;
5776;SDS011;2914;42.668;23.346;2023-02-26T04:28:11;11.73;;;4.23;;
5776;SDS011;2914;42.668;23.346;2023-02-26T04:30:49;13.97;;;5.10;;
5776;SDS011;2914;42.668;23.346;2023-02-26T04:33:18;14.20;;;4.03;;
5776;SDS011;2914;42.668;23.346;2023-02-26T04:35:48;12.27;;;4.13;;
5776;SDS011;2914;42.668;23.346;2023-02-26T04:38:17;21.00;;;3.97;;
5776;SDS011;2914;42.668;23.346;2023-02-26T04:40:47;7.63;;;3.90;;
5776;SDS011;2914;42.668;23.346;2023-02-26T04:43:18;13.93;;;3.50;;
5776;SDS011;2914;42.668;23.346;2023-02-26T04:45:47;16.47;;;4.33;;
5776;SDS011;2914;42.668;23.346;2023-02-26T04:48:16;18.87;;;3.77;;
5776;SDS011;2914;42.668;23.346;2023-02-26T04:50:46;11.57;;;3.70;;
5776;SDS011;2914;42.668;23.346;2023-02-26T04:53:16;12.33;;;4.00;;
5776;SDS011;2914;42.668;23.346;2023-02-26T04:55:49;14.70;;;4.07;;
5776;SDS011;2914;42.668;23.346;2023-02-26T04:58:19;31.30;;;4.23;;
5776;SDS011;2914;42.668;23.346;2023-02-26T05:00:48;14.70;;;3.43;;
5776;SDS011;2914;42.668;23.346;2023-02-26T05:03:18;17.80;;;4.07;;
5776;SDS011;2914;42.668;23.346;2023-02-26T05:05:49;16.20;;;3.70;;
5776;SDS011;2914;42.668;23.346;2023-02-26T05:08:22;18.37;;;4.27;;
5776;SDS011;2914;42.668;23.346;2023-02-26T05:10:51;15.53;;;3.83;;
5776;SDS011;2914;42.668;23.346;2023-02-26T05:13:22;12.40;;;4.10;;
5776;SDS011;2914;42.668;23.346;2023-02-26T05:15:52;19.37;;;4.33;;
5776;SDS011;2914;42.668;23.346;2023-02-26T05:18:22;19.87;;;4.50;;
5776;SDS011;2914;42.668;23.346;2023-02-26T05:20:54;17.80;;;3.70;;
5776;SDS011;2914;42.668;23.346;2023-02-26T05:23:23;22.53;;;4.87;;
5776;SDS011;2914;42.668;23.346;2023-02-26T05:26:07;13.33;;;4.10;;
5776;SDS011;2914;42.668;23.346;2023-02-26T05:28:37;8.13;;;3.57;;
5776;SDS011;2914;42.668;23.346;2023-02-26T05:31:06;21.40;;;5.20;;
5776;SDS011;2914;42.668;23.346;2023-02-26T05:33:35;32.67;;;4.47;;
5776;SDS011;2914;42.668;23.346;2023-02-26T05:36:06;24.90;;;4.23;;
5776;SDS011;2914;42.668;23.346;2023-02-26T05:38:37;23.03;;;3.40;;
5776;SDS011;2914;42.668;23.346;2023-02-26T05:41:06;31.00;;;5.23;;
5776;SDS011;2914;42.668;23.346;2023-02-26T05:43:35;15.37;;;4.30;;
5776;SDS011;2914;42.668;23.346;2023-02-26T05:46:05;27.13;;;4.47;;
5776;SDS011;2914;42.668;23.346;2023-02-26T05:48:34;11.00;;;4.20;;
5776;SDS011;2914;42.668;23.346;2023-02-26T05:51:04;16.10;;;4.27;;
5776;SDS011;2914;42.668;23.346;2023-02-26T05:53:35;23.70;;;4.77;;
5776;SDS011;2914;42.668;23.346;2023-02-26T05:56:05;7.83;;;3.90;;
5776;SDS011;2914;42.668;23.346;2023-02-26T05:58:36;37.10;;;4.10;;
5776;SDS011;2914;42.668;23.346;2023-02-26T06:01:06;28.77;;;4.50;;
5776;SDS011;2914;42.668;23.346;2023-02-26T06:03:36;17.80;;;4.40;;
5776;SDS011;2914;42.668;23.346;2023-02-26T06:06:07;24.17;;;3.70;;
5776;SDS011;2914;42.668;23.346;2023-02-26T06:08:37;17.00;;;3.93;;
5776;SDS011;2914;42.668;23.346;2023-02-26T06:11:06;22.70;;;4.93;;
5776;SDS011;2914;42.668;23.346;2023-02-26T06:13:35;18.80;;;3.83;;
5776;SDS011;2914;42.668;23.346;2023-02-26T06:16:05;10.67;;;3.30;;
5776;SDS011;2914;42.668;23.346;2023-02-26T06:18:34;25.40;;;3.40;;
5776;SDS011;2914;42.668;23.346;2023-02-26T06:21:04;17.37;;;3.90;;
5776;SDS011;2914;42.668;23.346;2023-02-26T06:23:42;22.90;;;3.43;;
5776;SDS011;2914;42.668;23.346;2023-02-26T06:26:11;20.90;;;4.30;;
5776;SDS011;2914;42.668;23.346;2023-02-26T06:28:41;20.37;;;3.90;;
5776;SDS011;2914;42.668;23.346;2023-02-26T06:31:10;28.20;;;5.10;;
5776;SDS011;2914;42.668;23.346;2023-02-26T06:33:39;20.23;;;3.10;;
5776;SDS011;2914;42.668;23.346;2023-02-26T06:36:08;30.23;;;3.70;;
5776;SDS011;2914;42.668;23.346;2023-02-26T06:38:38;26.87;;;4.10;;
5776;SDS011;2914;42.668;23.346;2023-02-26T06:41:07;38.20;;;4.50;;
5776;SDS011;2914;42.668;23.346;2023-02-26T06:43:37;24.63;;;3.53;;
5776;SDS011;2914;42.668;23.346;2023-02-26T06:46:11;26.23;;;4.03;;
5776;SDS011;2914;42.668;23.346;2023-02-26T06:48:42;34.63;;;4.23;;
5776;SDS011;2914;42.668;23.346;2023-02-26T06:51:11;34.80;;;4.77;;
5776;SDS011;2914;42.668;23.346;2023-02-26T06:53:42;27.03;;;3.80;;
5776;SDS011;2914;42.668;23.346;2023-02-26T06:56:12;17.93;;;4.67;;
5776;SDS011;2914;42.668;23.346;2023-02-26T06:58:42;26.67;;;4.20;;
5776;SDS011;2914;42.668;23.346;2023-02-26T07:01:12;19.53;;;3.27;;
5776;SDS011;2914;42.668;23.346;2023-02-26T07:04:00;13.97;;;4.70;;
5776;SDS011;2914;42.668;23.346;2023-02-26T07:06:31;25.50;;;4.77;;
5776;SDS011;2914;42.668;23.346;2023-02-26T07:09:01;51.87;;;4.33;;
5776;SDS011;2914;42.668;23.346;2023-02-26T07:11:32;17.93;;;4.33;;
5776;SDS011;2914;42.668;23.346;2023-02-26T07:14:10;18.57;;;3.60;;
5776;SDS011;2914;42.668;23.346;2023-02-26T07:16:39;10.03;;;3.50;;
5776;SDS011;2914;42.668;23.346;2023-02-26T07:19:09;22.83;;;4.23;;
5776;SDS011;2914;42.668;23.346;2023-02-26T07:21:39;22.40;;;5.70;;
5776;SDS011;2914;42.668;23.346;2023-02-26T07:24:08;41.37;;;5.20;;
5776;SDS011;2914;42.668;23.346;2023-02-26T07:26:38;52.50;;;4.30;;
5776;SDS011;2914;42.668;23.346;2023-02-26T07:29:07;26.73;;;4.00;;
5776;SDS011;2914;42.668;23.346;2023-02-26T07:31:37;27.70;;;5.23;;
5776;SDS011;2914;42.668;23.346;2023-02-26T07:34:08;19.73;;;4.23;;
5776;SDS011;2914;42.668;23.346;2023-02-26T07:36:38;20.60;;;4.50;;
5776;SDS011;2914;42.668;23.346;2023-02-26T07:39:07;26.93;;;4.90;;
5776;SDS011;2914;42.668;23.346;2023-02-26T07:41:41;22.80;;;4.30;;
5776;SDS011;2914;42.668;23.346;2023-02-26T07:44:30;19.47;;;6.80;;
5776;SDS011;2914;42.668;23.346;2023-02-26T07:46:59;22.37;;;4.00;;
5776;SDS011;2914;42.668;23.346;2023-02-26T07:49:35;23.53;;;4.20;;
5776;SDS011;2914;42.668;23.346;2023-02-26T07:52:08;34.60;;;3.57;;
5776;SDS011;2914;42.668;23.346;2023-02-26T07:54:39;22.43;;;4.00;;
5776;SDS011;2914;42.668;23.346;2023-02-26T07:57:09;15.20;;;4.03;;
5776;SDS011;2914;42.668;23.346;2023-02-26T07:59:39;30.47;;;5.47;;
5776;SDS011;2914;42.668;23.346;2023-02-26T08:02:10;29.30;;;4.23;;
5776;SDS011;2914;42.668;23.346;2023-02-26T08:04:42;20.57;;;3.80;;
5776;SDS011;2914;42.668;23.346;2023-02-26T08:07:11;23.67;;;3.77;;
5776;SDS011;2914;42.668;23.346;2023-02-26T08:09:57;15.23;;;3.63;;
5776;SDS011;2914;42.668;23.346;2023-02-26T08:12:29;41.37;;;5.00;;
5776;SDS011;2914;42.668;23.346;2023-02-26T08:15:00;22.53;;;4.10;;
5776;SDS011;2914;42.668;23.346;2023-02-26T08:17:31;18.83;;;3.93;;
5776;SDS011;2914;42.668;23.346;2023-02-26T08:20:00;11.97;;;4.10;;
5776;SDS011;2914;42.668;23.346;2023-02-26T08:22:31;24.33;;;3.77;;
5776;SDS011;2914;42.668;23.346;2023-02-26T08:25:07;27.07;;;4.57;;
5776;SDS011;2914;42.668;23.346;2023-02-26T08:27:40;19.77;;;4.80;;
5776;SDS011;2914;42.668;23.346;2023-02-26T08:33:07;21.00;;;3.73;;
5776;SDS011;2914;42.668;23.346;2023-02-26T08:35:37;19.50;;;4.58;;
5776;SDS011;2914;42.668;23.346;2023-02-26T08:38:07;34.27;;;5.10;;
5776;SDS011;2914;42.668;23.346;2023-02-26T08:40:37;8.83;;;3.30;;
5776;SDS011;2914;42.668;23.346;2023-02-26T08:43:07;25.43;;;4.17;;
5776;SDS011;2914;42.668;23.346;2023-02-26T08:45:37;19.90;;;4.20;;
5776;SDS011;2914;42.668;23.346;2023-02-26T08:48:06;25.23;;;3.63;;
5776;SDS011;2914;42.668;23.346;2023-02-26T08:50:35;15.60;;;4.30;;
5776;SDS011;2914;42.668;23.346;2023-02-26T08:53:05;23.60;;;4.23;;
5776;SDS011;2914;42.668;23.346;2023-02-26T08:55:49;12.00;;;3.70;;
5776;SDS011;2914;42.668;23.346;2023-02-26T08:58:20;11.77;;;3.67;;
5776;SDS011;2914;42.668;23.346;2023-02-26T09:00:49;21.10;;;3.80;;
5776;SDS011;2914;42.668;23.346;2023-02-26T09:03:18;27.33;;;5.47;;
5776;SDS011;2914;42.668;23.346;2023-02-26T09:05:47;29.37;;;4.20;;
5776;SDS011;2914;42.668;23.346;2023-02-26T09:08:16;19.03;;;4.20;;
5776;SDS011;2914;42.668;23.346;2023-02-26T09:10:54;30.97;;;3.93;;
5776;SDS011;2914;42.668;23.346;2023-02-26T09:13:27;11.70;;;3.90;;
5776;SDS011;2914;42.668;23.346;2023-02-26T09:15:56;20.63;;;3.90;;
5776;SDS011;2914;42.668;23.346;2023-02-26T09:18:34;25.23;;;3.90;;
5776;SDS011;2914;42.668;23.346;2023-02-26T09:21:04;19.53;;;4.13;;
5776;SDS011;2914;42.668;23.346;2023-02-26T09:23:34;15.07;;;4.23;;
5776;SDS011;2914;42.668;23.346;2023-02-26T09:26:03;23.27;;;4.73;;
5776;SDS011;2914;42.668;23.346;2023-02-26T09:28:34;26.40;;;4.90;;
5776;SDS011;2914;42.668;23.346;2023-02-26T09:31:04;16.83;;;4.70;;
5776;SDS011;2914;42.668;23.346;2023-02-26T09:33:33;27.77;;;4.43;;
5776;SDS011;2914;42.668;23.346;2023-02-26T09:36:03;42.20;;;4.60;;
5776;SDS011;2914;42.668;23.346;2023-02-26T09:38:33;16.63;;;4.87;;
5776;SDS011;2914;42.668;23.346;2023-02-26T09:41:04;27.80;;;5.53;;
5776;SDS011;2914;42.668;23.346;2023-02-26T09:43:42;27.83;;;5.37;;
5776;SDS011;2914;42.668;23.346;2023-02-26T09:46:27;24.40;;;4.83;;
5776;SDS011;2914;42.668;23.346;2023-02-26T09:49:02;21.47;;;4.87;;
5776;SDS011;2914;42.668;23.346;2023-02-26T09:51:34;38.43;;;5.53;;
5776;SDS011;2914;42.668;23.346;2023-02-26T09:54:07;14.23;;;4.00;;
5776;SDS011;2914;42.668;23.346;2023-02-26T09:56:37;20.23;;;5.10;;
5776;SDS011;2914;42.668;23.346;2023-02-26T09:59:07;28.37;;;5.43;;
5776;SDS011;2914;42.668;23.346;2023-02-26T10:01:38;23.53;;;5.10;;
5776;SDS011;2914;42.668;23.346;2023-02-26T10:04:12;22.23;;;4.93;;
5776;SDS011;2914;42.668;23.346;2023-02-26T10:06:47;19.43;;;6.07;;
5776;SDS011;2914;42.668;23.346;2023-02-26T10:09:30;19.40;;;5.63;;
5776;SDS011;2914;42.668;23.346;2023-02-26T10:12:04;20.03;;;7.90;;
5776;SDS011;2914;42.668;23.346;2023-02-26T10:14:37;27.97;;;5.53;;
5776;SDS011;2914;42.668;23.346;2023-02-26T10:17:22;13.47;;;5.13;;
5776;SDS011;2914;42.668;23.346;2023-02-26T10:19:56;24.57;;;4.67;;
5776;SDS011;2914;42.668;23.346;2023-02-26T10:22:29;24.50;;;4.63;;
5776;SDS011;2914;42.668;23.346;2023-02-26T10:25:09;20.80;;;4.80;;
5776;SDS011;2914;42.668;23.346;2023-02-26T10:27:44;17.07;;;4.10;;
5776;SDS011;2914;42.668;23.346;2023-02-26T10:30:26;16.30;;;3.40;;
5776;SDS011;2914;42.668;23.346;2023-02-26T10:32:58;24.13;;;4.43;;
5776;SDS011;2914;42.668;23.346;2023-02-26T10:35:31;11.63;;;3.33;;
5776;SDS011;2914;42.668;23.346;2023-02-26T10:38:17;16.80;;;4.17;;
5776;SDS011;2914;42.668;23.346;2023-02-26T10:40:52;23.20;;;3.43;;
5776;SDS011;2914;42.668;23.346;2023-02-26T10:43:39;11.90;;;3.67;;
5776;SDS011;2914;42.668;23.346;2023-02-26T10:46:16;12.50;;;4.17;;
5776;SDS011;2914;42.668;23.346;2023-02-26T10:52:10;24.00;;;4.07;;
5776;SDS011;2914;42.668;23.346;2023-02-26T10:54:48;15.43;;;3.60;;
5776;SDS011;2914;42.668;23.346;2023-02-26T10:57:29;21.13;;;4.50;;
5776;SDS011;2914;42.668;23.346;2023-02-26T11:00:12;15.43;;;3.93;;
5776;SDS011;2914;42.668;23.346;2023-02-26T11:02:49;25.43;;;3.50;;
5776;SDS011;2914;42.668;23.346;2023-02-26T11:05:22;13.77;;;3.40;;
5776;SDS011;2914;42.668;23.346;2023-02-26T11:07:56;25.63;;;6.73;;
5776;SDS011;2914;42.668;23.346;2023-02-26T11:10:46;25.40;;;4.00;;
5776;SDS011;2914;42.668;23.346;2023-02-26T11:13:19;22.97;;;3.77;;
5776;SDS011;2914;42.668;23.346;2023-02-26T11:15:50;21.43;;;4.53;;
5776;SDS011;2914;42.668;23.346;2023-02-26T11:18:25;32.63;;;3.97;;
5776;SDS011;2914;42.668;23.346;2023-02-26T11:21:16;22.97;;;4.13;;
5776;SDS011;2914;42.668;23.346;2023-02-26T11:23:50;32.03;;;3.20;;
5776;SDS011;2914;42.668;23.346;2023-02-26T11:26:25;18.37;;;4.47;;
5776;SDS011;2914;42.668;23.346;2023-02-26T11:29:11;14.03;;;4.53;;
5776;SDS011;2914;42.668;23.346;2023-02-26T11:31:42;21.47;;;5.00;;
5776;SDS011;2914;42.668;23.346;2023-02-26T11:34:14;20.10;;;4.20;;
5776;SDS011;2914;42.668;23.346;2023-02-26T11:36:44;46.23;;;4.80;;
5776;SDS011;2914;42.668;23.346;2023-02-26T11:39:15;13.50;;;4.30;;
5776;SDS011;2914;42.668;23.346;2023-02-26T11:41:46;34.47;;;5.40;;
5776;SDS011;2914;42.668;23.346;2023-02-26T11:44:18;14.93;;;4.20;;
5776;SDS011;2914;42.668;23.346;2023-02-26T11:46:54;19.73;;;5.10;;
5776;SDS011;2914;42.668;23.346;2023-02-26T11:49:34;18.33;;;4.33;;
5776;SDS011;2914;42.668;23.346;2023-02-26T11:52:14;17.87;;;4.63;;
5776;SDS011;2914;42.668;23.346;2023-02-26T11:54:50;14.00;;;4.50;;
5776;SDS011;2914;42.668;23.346;2023-02-26T11:57:29;16.17;;;6.37;;
5776;SDS011;2914;42.668;23.346;2023-02-26T12:00:00;21.10;;;4.50;;
5776;SDS011;2914;42.668;23.346;2023-02-26T12:02:34;13.13;;;4.10;;
5776;SDS011;2914;42.668;23.346;2023-02-26T12:05:15;23.27;;;5.00;;
5776;SDS011;2914;42.668;23.346;2023-02-26T12:07:44;15.10;;;5.50;;
5776;SDS011;2914;42.668;23.346;2023-02-26T12:10:15;10.23;;;4.70;;
5776;SDS011;2914;42.668;23.346;2023-02-26T12:12:49;17.90;;;4.90;;
5776;SDS011;2914;42.668;23.346;2023-02-26T12:15:27;19.13;;;5.00;;
5776;SDS011;2914;42.668;23.346;2023-02-26T12:21:42;21.00;;;4.53;;
5776;SDS011;2914;42.668;23.346;2023-02-26T12:24:24;25.83;;;4.67;;
5776;SDS011;2914;42.668;23.346;2023-02-26T12:27:04;27.63;;;5.90;;
5776;SDS011;2914;42.668;23.346;2023-02-26T12:29:45;35.87;;;4.87;;
5776;SDS011;2914;42.668;23.346;2023-02-26T12:35:35;33.80;;;6.90;;
5776;SDS011;2914;42.668;23.346;2023-02-26T12:38:19;21.73;;;6.00;;
5776;SDS011;2914;42.668;23.346;2023-02-26T12:40:57;33.13;;;6.20;;
5776;SDS011;2914;42.668;23.346;2023-02-26T12:43:54;31.77;;;6.40;;
5776;SDS011;2914;42.668;23.346;2023-02-26T12:46:38;27.90;;;6.30;;
5776;SDS011;2914;42.668;23.346;2023-02-26T12:49:22;28.20;;;6.07;;
5776;SDS011;2914;42.668;23.346;2023-02-26T12:52:14;18.37;;;5.73;;
5776;SDS011;2914;42.668;23.346;2023-02-26T12:54:52;26.73;;;5.83;;
5776;SDS011;2914;42.668;23.346;2023-02-26T12:57:49;25.13;;;6.10;;
5776;SDS011;2914;42.668;23.346;2023-02-26T13:00:38;16.13;;;4.83;;
5776;SDS011;2914;42.668;23.346;2023-02-26T13:03:23;15.77;;;4.70;;
5776;SDS011;2914;42.668;23.346;2023-02-26T13:06:12;15.63;;;5.07;;
5776;SDS011;2914;42.668;23.346;2023-02-26T13:08:53;12.90;;;4.50;;
5776;SDS011;2914;42.668;23.346;2023-02-26T13:11:29;17.77;;;4.63;;
5776;SDS011;2914;42.668;23.346;2023-02-26T13:14:06;18.00;;;5.03;;
5776;SDS011;2914;42.668;23.346;2023-02-26T13:16:43;15.90;;;5.00;;
5776;SDS011;2914;42.668;23.346;2023-02-26T13:19:19;44.30;;;5.13;;
5776;SDS011;2914;42.668;23.346;2023-02-26T13:21:54;10.70;;;4.40;;
5776;SDS011;2914;42.668;23.346;2023-02-26T13:24:27;21.37;;;4.73;;
5776;SDS011;2914;42.668;23.346;2023-02-26T13:26:58;23.40;;;5.70;;
5776;SDS011;2914;42.668;23.346;2023-02-26T13:29:31;14.80;;;6.27;;
5776;SDS011;2914;42.668;23.346;2023-02-26T13:32:03;18.23;;;4.93;;
5776;SDS011;2914;42.668;23.346;2023-02-26T13:34:40;29.30;;;5.73;;
5776;SDS011;2914;42.668;23.346;2023-02-26T13:37:22;20.20;;;5.37;;
5776;SDS011;2914;42.668;23.346;2023-02-26T13:40:02;22.33;;;6.17;;
5776;SDS011;2914;42.668;23.346;2023-02-26T13:42:52;18.73;;;5.73;;
5776;SDS011;2914;42.668;23.346;2023-02-26T13:45:29;24.87;;;5.77;;
5776;SDS011;2914;42.668;23.346;2023-02-26T13:48:13;21.10;;;6.17;;
5776;SDS011;2914;42.668;23.346;2023-02-26T13:50:49;21.57;;;5.20;;
5776;SDS011;2914;42.668;23.346;2023-02-26T13:56:52;23.93;;;5.93;;
5776;SDS011;2914;42.668;23.346;2023-02-26T13:59:27;14.60;;;5.33;;
5776;SDS011;2914;42.668;23.346;2023-02-26T14:02:36;20.33;;;5.47;;
5776;SDS011;2914;42.668;23.346;2023-02-26T14:05:08;29.67;;;5.97;;
5776;SDS011;2914;42.668;23.346;2023-02-26T14:08:08;22.00;;;6.20;;
5776;SDS011;2914;42.668;23.346;2023-02-26T14:11:01;24.20;;;5.37;;
5776;SDS011;2914;42.668;23.346;2023-02-26T14:13:38;27.80;;;5.97;;
5776;SDS011;2914;42.668;23.346;2023-02-26T14:16:11;30.83;;;5.77;;
5776;SDS011;2914;42.668;23.346;2023-02-26T14:18:48;30.50;;;5.57;;
5776;SDS011;2914;42.668;23.346;2023-02-26T14:21:27;35.73;;;6.80;;
5776;SDS011;2914;42.668;23.346;2023-02-26T14:24:13;17.73;;;5.03;;
5776;SDS011;2914;42.668;23.346;2023-02-26T14:26:46;27.73;;;5.70;;
5776;SDS011;2914;42.668;23.346;2023-02-26T14:29:20;49.43;;;7.43;;
5776;SDS011;2914;42.668;23.346;2023-02-26T14:31:54;28.53;;;6.07;;
5776;SDS011;2914;42.668;23.346;2023-02-26T14:34:35;26.70;;;6.80;;
5776;SDS011;2914;42.668;23.346;2023-02-26T14:37:07;17.80;;;6.43;;
5776;SDS011;2914;42.668;23.346;2023-02-26T14:39:39;37.73;;;6.10;;
5776;SDS011;2914;42.668;23.346;2023-02-26T14:42:12;19.20;;;5.00;;
5776;SDS011;2914;42.668;23.346;2023-02-26T14:44:43;28.13;;;6.20;;
5776;SDS011;2914;42.668;23.346;2023-02-26T14:47:15;43.33;;;6.37;;
5776;SDS011;2914;42.668;23.346;2023-02-26T14:49:45;41.70;;;6.37;;
5776;SDS011;2914;42.668;23.346;2023-02-26T14:52:31;26.83;;;6.63;;
5776;SDS011;2914;42.668;23.346;2023-02-26T14:55:07;27.63;;;6.57;;
5776;SDS011;2914;42.668;23.346;2023-02-26T14:57:47;53.03;;;7.40;;
5776;SDS011;2914;42.668;23.346;2023-02-26T15:00:21;40.77;;;7.30;;
5776;SDS011;2914;42.668;23.346;2023-02-26T15:03:05;37.87;;;7.20;;
5776;SDS011;2914;42.668;23.346;2023-02-26T15:05:44;40.00;;;6.73;;
5776;SDS011;2914;42.668;23.346;2023-02-26T15:08:33;45.63;;;7.40;;
5776;SDS011;2914;42.668;23.346;2023-02-26T15:11:12;56.57;;;7.97;;
5776;SDS011;2914;42.668;23.346;2023-02-26T15:14:01;43.77;;;8.30;;
5776;SDS011;2914;42.668;23.346;2023-02-26T15:16:37;37.43;;;6.53;;
5776;SDS011;2914;42.668;23.346;2023-02-26T15:19:31;53.87;;;7.60;;
5776;SDS011;2914;42.668;23.346;2023-02-26T15:22:09;50.13;;;6.97;;
5776;SDS011;2914;42.668;23.346;2023-02-26T15:24:43;27.07;;;7.00;;
5776;SDS011;2914;42.668;23.346;2023-02-26T15:27:15;40.93;;;7.27;;
5776;SDS011;2914;42.668;23.346;2023-02-26T15:29:46;56.50;;;7.07;;
5776;SDS011;2914;42.668;23.346;2023-02-26T15:32:21;37.33;;;8.50;;
5776;SDS011;2914;42.668;23.346;2023-02-26T15:35:00;43.90;;;7.83;;
5776;SDS011;2914;42.668;23.346;2023-02-26T15:37:32;41.13;;;6.90;;
5776;SDS011;2914;42.668;23.346;2023-02-26T15:40:04;51.17;;;7.87;;
5776;SDS011;2914;42.668;23.346;2023-02-26T15:42:37;39.97;;;7.10;;
5776;SDS011;2914;42.668;23.346;2023-02-26T15:45:09;38.80;;;7.27;;
5776;SDS011;2914;42.668;23.346;2023-02-26T15:47:41;45.80;;;8.10;;
5776;SDS011;2914;42.668;23.346;2023-02-26T15:50:13;36.23;;;7.13;;